sensor_id;sensor_type;location;lat;lon;timestamp;P1;durP1;ratioP1;P2;durP2;ratioP2
2658;SDS011;1339;53.304;10.406;2022-08-25T00:00:11;10.07;;;6.17;;
2658;SDS011;1339;53.304;10.406;2022-08-25T00:02:38;6.60;;;5.97;;
2658;SDS011;1339;53.304;10.406;2022-08-25T00:05:05;8.20;;;7.43;;
2658;SDS011;1339;53.304;10.406;2022-08-25T00:07:32;5.80;;;5.30;;
2658;SDS011;1339;53.304;10.406;2022-08-25T00:10:02;6.93;;;5.23;;
2658;SDS011;1339;53.304;10.406;2022-08-25T00:12:29;5.37;;;4.97;;
2658;SDS011;1339;53.304;10.406;2022-08-25T00:14:56;6.23;;;5.17;;
2658;SDS011;1339;53.304;10.406;2022-08-25T00:17:24;8.83;;;6.13;;
2658;SDS011;1339;53.304;10.406;2022-08-25T00:19:51;6.30;;;5.80;;
2658;SDS011;1339;53.304;10.406;2022-08-25T00:22:18;6.27;;;5.50;;
2658;SDS011;1339;53.304;10.406;2022-08-25T00:24:46;7.03;;;6.20;;
2658;SDS011;1339;53.304;10.406;2022-08-25T00:27:14;6.17;;;5.63;;
2658;SDS011;1339;53.304;10.406;2022-08-25T00:29:42;7.13;;;6.37;;
2658;SDS011;1339;53.304;10.406;2022-08-25T00:32:09;8.07;;;5.60;;
2658;SDS011;1339;53.304;10.406;2022-08-25T00:34:37;6.90;;;6.30;;
2658;SDS011;1339;53.304;10.406;2022-08-25T00:37:05;10.27;;;6.50;;
2658;SDS011;1339;53.304;10.406;2022-08-25T00:39:34;7.00;;;6.40;;
2658;SDS011;1339;53.304;10.406;2022-08-25T00:42:01;6.60;;;5.90;;
2658;SDS011;1339;53.304;10.406;2022-08-25T00:44:30;7.00;;;6.13;;
2658;SDS011;1339;53.304;10.406;2022-08-25T00:46:59;6.77;;;6.17;;
2658;SDS011;1339;53.304;10.406;2022-08-25T00:49:28;11.10;;;7.30;;
2658;SDS011;1339;53.304;10.406;2022-08-25T00:51:57;7.47;;;6.57;;
2658;SDS011;1339;53.304;10.406;2022-08-25T00:54:26;6.70;;;6.10;;
2658;SDS011;1339;53.304;10.406;2022-08-25T00:56:53;6.97;;;6.37;;
2658;SDS011;1339;53.304;10.406;2022-08-25T00:59:22;7.03;;;6.43;;
2658;SDS011;1339;53.304;10.406;2022-08-25T01:01:52;7.80;;;7.10;;
2658;SDS011;1339;53.304;10.406;2022-08-25T01:04:19;9.00;;;6.60;;
2658;SDS011;1339;53.304;10.406;2022-08-25T01:06:46;7.53;;;6.80;;
2658;SDS011;1339;53.304;10.406;2022-08-25T01:09:13;8.30;;;7.50;;
2658;SDS011;1339;53.304;10.406;2022-08-25T01:11:41;7.67;;;6.97;;
2658;SDS011;1339;53.304;10.406;2022-08-25T01:14:09;8.10;;;7.40;;
2658;SDS011;1339;53.304;10.406;2022-08-25T01:16:37;7.03;;;6.43;;
2658;SDS011;1339;53.304;10.406;2022-08-25T01:19:06;7.17;;;6.63;;
2658;SDS011;1339;53.304;10.406;2022-08-25T01:21:38;8.33;;;7.73;;
2658;SDS011;1339;53.304;10.406;2022-08-25T01:24:06;9.23;;;8.03;;
2658;SDS011;1339;53.304;10.406;2022-08-25T01:26:33;7.77;;;7.03;;
2658;SDS011;1339;53.304;10.406;2022-08-25T01:29:03;8.13;;;7.43;;
2658;SDS011;1339;53.304;10.406;2022-08-25T01:31:46;9.87;;;7.40;;
2658;SDS011;1339;53.304;10.406;2022-08-25T01:34:13;8.03;;;7.23;;
2658;SDS011;1339;53.304;10.406;2022-08-25T01:36:42;11.43;;;8.67;;
2658;SDS011;1339;53.304;10.406;2022-08-25T01:39:10;10.00;;;8.40;;
2658;SDS011;1339;53.304;10.406;2022-08-25T01:41:40;7.80;;;7.20;;
2658;SDS011;1339;53.304;10.406;2022-08-25T01:44:11;9.53;;;8.47;;
2658;SDS011;1339;53.304;10.406;2022-08-25T01:46:38;8.80;;;7.83;;
2658;SDS011;1339;53.304;10.406;2022-08-25T01:49:05;9.23;;;8.20;;
2658;SDS011;1339;53.304;10.406;2022-08-25T01:51:33;8.07;;;6.87;;
2658;SDS011;1339;53.304;10.406;2022-08-25T01:54:02;8.30;;;7.60;;
2658;SDS011;1339;53.304;10.406;2022-08-25T01:56:29;9.27;;;8.57;;
2658;SDS011;1339;53.304;10.406;2022-08-25T01:58:56;7.70;;;7.00;;
2658;SDS011;1339;53.304;10.406;2022-08-25T02:01:23;10.90;;;9.57;;
2658;SDS011;1339;53.304;10.406;2022-08-25T02:03:51;8.63;;;7.63;;
2658;SDS011;1339;53.304;10.406;2022-08-25T02:06:20;8.10;;;7.40;;
2658;SDS011;1339;53.304;10.406;2022-08-25T02:08:49;8.70;;;7.90;;
2658;SDS011;1339;53.304;10.406;2022-08-25T02:11:17;9.47;;;7.70;;
2658;SDS011;1339;53.304;10.406;2022-08-25T02:13:45;8.63;;;7.83;;
2658;SDS011;1339;53.304;10.406;2022-08-25T02:16:14;9.53;;;8.20;;
2658;SDS011;1339;53.304;10.406;2022-08-25T02:18:42;9.77;;;8.73;;
2658;SDS011;1339;53.304;10.406;2022-08-25T02:21:10;11.23;;;9.20;;
2658;SDS011;1339;53.304;10.406;2022-08-25T02:23:38;7.90;;;7.20;;
2658;SDS011;1339;53.304;10.406;2022-08-25T02:26:06;11.57;;;8.10;;
2658;SDS011;1339;53.304;10.406;2022-08-25T02:28:35;8.27;;;7.57;;
2658;SDS011;1339;53.304;10.406;2022-08-25T02:31:02;9.60;;;8.40;;
2658;SDS011;1339;53.304;10.406;2022-08-25T02:33:29;8.70;;;8.00;;
2658;SDS011;1339;53.304;10.406;2022-08-25T02:35:57;8.90;;;8.10;;
2658;SDS011;1339;53.304;10.406;2022-08-25T02:38:25;8.70;;;7.90;;
2658;SDS011;1339;53.304;10.406;2022-08-25T02:40:52;9.80;;;8.87;;
2658;SDS011;1339;53.304;10.406;2022-08-25T02:43:19;9.20;;;8.30;;
2658;SDS011;1339;53.304;10.406;2022-08-25T02:45:48;8.90;;;8.10;;
2658;SDS011;1339;53.304;10.406;2022-08-25T02:48:15;8.77;;;7.90;;
2658;SDS011;1339;53.304;10.406;2022-08-25T02:50:45;9.63;;;8.80;;
2658;SDS011;1339;53.304;10.406;2022-08-25T02:53:12;9.27;;;8.57;;
2658;SDS011;1339;53.304;10.406;2022-08-25T02:55:39;8.23;;;7.57;;
2658;SDS011;1339;53.304;10.406;2022-08-25T02:58:06;9.73;;;8.67;;
2658;SDS011;1339;53.304;10.406;2022-08-25T03:00:34;8.43;;;7.73;;
2658;SDS011;1339;53.304;10.406;2022-08-25T03:03:03;8.33;;;7.70;;
2658;SDS011;1339;53.304;10.406;2022-08-25T03:05:30;8.77;;;7.57;;
2658;SDS011;1339;53.304;10.406;2022-08-25T03:07:58;8.87;;;8.17;;
2658;SDS011;1339;53.304;10.406;2022-08-25T03:10:25;9.50;;;8.60;;
2658;SDS011;1339;53.304;10.406;2022-08-25T03:12:52;11.13;;;8.80;;
2658;SDS011;1339;53.304;10.406;2022-08-25T03:15:19;8.90;;;8.10;;
2658;SDS011;1339;53.304;10.406;2022-08-25T03:17:49;9.33;;;8.13;;
2658;SDS011;1339;53.304;10.406;2022-08-25T03:20:19;8.97;;;8.17;;
2658;SDS011;1339;53.304;10.406;2022-08-25T03:22:46;9.10;;;8.30;;
2658;SDS011;1339;53.304;10.406;2022-08-25T03:25:13;12.07;;;9.20;;
2658;SDS011;1339;53.304;10.406;2022-08-25T03:28:07;8.50;;;7.80;;
2658;SDS011;1339;53.304;10.406;2022-08-25T03:30:35;9.70;;;8.80;;
2658;SDS011;1339;53.304;10.406;2022-08-25T03:33:02;8.33;;;7.63;;
2658;SDS011;1339;53.304;10.406;2022-08-25T03:35:30;8.40;;;7.70;;
2658;SDS011;1339;53.304;10.406;2022-08-25T03:37:58;9.00;;;8.20;;
2658;SDS011;1339;53.304;10.406;2022-08-25T03:40:25;9.67;;;8.50;;
2658;SDS011;1339;53.304;10.406;2022-08-25T03:42:53;8.30;;;7.60;;
2658;SDS011;1339;53.304;10.406;2022-08-25T03:45:21;9.37;;;8.57;;
2658;SDS011;1339;53.304;10.406;2022-08-25T03:47:49;8.83;;;8.07;;
2658;SDS011;1339;53.304;10.406;2022-08-25T03:50:17;9.73;;;8.83;;
2658;SDS011;1339;53.304;10.406;2022-08-25T03:52:48;7.10;;;6.50;;
2658;SDS011;1339;53.304;10.406;2022-08-25T03:55:16;8.53;;;7.67;;
2658;SDS011;1339;53.304;10.406;2022-08-25T03:57:43;9.87;;;8.87;;
2658;SDS011;1339;53.304;10.406;2022-08-25T04:00:10;9.57;;;7.70;;
2658;SDS011;1339;53.304;10.406;2022-08-25T04:02:38;10.03;;;9.17;;
2658;SDS011;1339;53.304;10.406;2022-08-25T04:05:05;9.70;;;8.93;;
2658;SDS011;1339;53.304;10.406;2022-08-25T04:07:33;9.77;;;8.97;;
2658;SDS011;1339;53.304;10.406;2022-08-25T04:10:01;11.03;;;8.73;;
2658;SDS011;1339;53.304;10.406;2022-08-25T04:12:28;16.90;;;10.43;;
2658;SDS011;1339;53.304;10.406;2022-08-25T04:14:56;11.00;;;9.90;;
2658;SDS011;1339;53.304;10.406;2022-08-25T04:17:23;12.90;;;11.00;;
2658;SDS011;1339;53.304;10.406;2022-08-25T04:19:50;13.00;;;11.70;;
2658;SDS011;1339;53.304;10.406;2022-08-25T04:22:17;12.27;;;11.10;;
2658;SDS011;1339;53.304;10.406;2022-08-25T04:24:44;12.70;;;11.50;;
2658;SDS011;1339;53.304;10.406;2022-08-25T04:27:13;11.40;;;10.37;;
2658;SDS011;1339;53.304;10.406;2022-08-25T04:29:40;11.60;;;10.60;;
2658;SDS011;1339;53.304;10.406;2022-08-25T04:32:07;11.67;;;10.47;;
2658;SDS011;1339;53.304;10.406;2022-08-25T04:34:34;14.33;;;11.20;;
2658;SDS011;1339;53.304;10.406;2022-08-25T04:37:02;12.63;;;11.37;;
2658;SDS011;1339;53.304;10.406;2022-08-25T04:39:30;18.20;;;16.43;;
2658;SDS011;1339;53.304;10.406;2022-08-25T04:41:58;12.80;;;11.67;;
2658;SDS011;1339;53.304;10.406;2022-08-25T04:44:26;14.00;;;11.57;;
2658;SDS011;1339;53.304;10.406;2022-08-25T04:46:53;16.53;;;13.20;;
2658;SDS011;1339;53.304;10.406;2022-08-25T04:49:20;19.93;;;14.23;;
2658;SDS011;1339;53.304;10.406;2022-08-25T04:51:48;15.40;;;13.97;;
2658;SDS011;1339;53.304;10.406;2022-08-25T04:54:15;17.07;;;14.33;;
2658;SDS011;1339;53.304;10.406;2022-08-25T04:56:45;16.87;;;15.33;;
2658;SDS011;1339;53.304;10.406;2022-08-25T04:59:13;18.87;;;15.57;;
2658;SDS011;1339;53.304;10.406;2022-08-25T05:01:42;15.30;;;13.47;;
2658;SDS011;1339;53.304;10.406;2022-08-25T05:04:11;14.80;;;13.30;;
2658;SDS011;1339;53.304;10.406;2022-08-25T05:06:39;16.57;;;14.97;;
2658;SDS011;1339;53.304;10.406;2022-08-25T05:09:06;17.17;;;15.60;;
2658;SDS011;1339;53.304;10.406;2022-08-25T05:11:33;15.47;;;14.00;;
2658;SDS011;1339;53.304;10.406;2022-08-25T05:14:01;15.80;;;14.30;;
2658;SDS011;1339;53.304;10.406;2022-08-25T05:16:28;14.10;;;12.63;;
2658;SDS011;1339;53.304;10.406;2022-08-25T05:18:57;15.80;;;14.13;;
2658;SDS011;1339;53.304;10.406;2022-08-25T05:21:25;15.93;;;14.50;;
2658;SDS011;1339;53.304;10.406;2022-08-25T05:23:53;16.07;;;14.67;;
2658;SDS011;1339;53.304;10.406;2022-08-25T05:26:22;15.47;;;14.07;;
2658;SDS011;1339;53.304;10.406;2022-08-25T05:28:50;16.37;;;14.77;;
2658;SDS011;1339;53.304;10.406;2022-08-25T05:31:18;13.63;;;12.33;;
2658;SDS011;1339;53.304;10.406;2022-08-25T05:33:46;15.20;;;13.80;;
2658;SDS011;1339;53.304;10.406;2022-08-25T05:36:15;17.23;;;15.50;;
2658;SDS011;1339;53.304;10.406;2022-08-25T05:38:42;17.13;;;15.50;;
2658;SDS011;1339;53.304;10.406;2022-08-25T05:41:10;17.87;;;16.20;;
2658;SDS011;1339;53.304;10.406;2022-08-25T05:43:39;14.97;;;13.67;;
2658;SDS011;1339;53.304;10.406;2022-08-25T05:46:07;16.83;;;15.13;;
2658;SDS011;1339;53.304;10.406;2022-08-25T05:48:34;15.90;;;14.30;;
2658;SDS011;1339;53.304;10.406;2022-08-25T05:51:02;17.40;;;15.60;;
2658;SDS011;1339;53.304;10.406;2022-08-25T05:53:31;16.33;;;14.83;;
2658;SDS011;1339;53.304;10.406;2022-08-25T05:55:59;13.63;;;12.53;;
2658;SDS011;1339;53.304;10.406;2022-08-25T05:58:27;15.67;;;14.17;;
2658;SDS011;1339;53.304;10.406;2022-08-25T06:00:55;14.90;;;13.57;;
2658;SDS011;1339;53.304;10.406;2022-08-25T06:03:43;13.83;;;12.53;;
2658;SDS011;1339;53.304;10.406;2022-08-25T06:06:09;15.93;;;14.53;;
2658;SDS011;1339;53.304;10.406;2022-08-25T06:08:37;16.57;;;14.20;;
2658;SDS011;1339;53.304;10.406;2022-08-25T06:11:05;17.27;;;15.33;;
2658;SDS011;1339;53.304;10.406;2022-08-25T06:13:32;14.37;;;13.07;;
2658;SDS011;1339;53.304;10.406;2022-08-25T06:15:59;17.00;;;15.20;;
2658;SDS011;1339;53.304;10.406;2022-08-25T06:18:26;16.70;;;15.00;;
2658;SDS011;1339;53.304;10.406;2022-08-25T06:20:53;17.33;;;15.30;;
2658;SDS011;1339;53.304;10.406;2022-08-25T06:23:20;18.67;;;16.87;;
2658;SDS011;1339;53.304;10.406;2022-08-25T06:25:49;17.53;;;15.63;;
2658;SDS011;1339;53.304;10.406;2022-08-25T06:28:17;19.63;;;17.67;;
2658;SDS011;1339;53.304;10.406;2022-08-25T06:30:44;17.27;;;15.47;;
2658;SDS011;1339;53.304;10.406;2022-08-25T06:33:11;17.37;;;15.57;;
2658;SDS011;1339;53.304;10.406;2022-08-25T06:35:39;16.10;;;14.60;;
2658;SDS011;1339;53.304;10.406;2022-08-25T06:38:06;20.47;;;18.50;;
2658;SDS011;1339;53.304;10.406;2022-08-25T06:40:34;19.80;;;17.70;;
2658;SDS011;1339;53.304;10.406;2022-08-25T06:43:03;21.73;;;17.57;;
2658;SDS011;1339;53.304;10.406;2022-08-25T06:45:33;22.50;;;19.10;;
2658;SDS011;1339;53.304;10.406;2022-08-25T06:48:00;19.70;;;17.33;;
2658;SDS011;1339;53.304;10.406;2022-08-25T06:50:27;17.93;;;16.03;;
2658;SDS011;1339;53.304;10.406;2022-08-25T06:52:54;18.37;;;16.50;;
2658;SDS011;1339;53.304;10.406;2022-08-25T06:55:21;20.97;;;17.03;;
2658;SDS011;1339;53.304;10.406;2022-08-25T06:57:50;19.77;;;17.40;;
2658;SDS011;1339;53.304;10.406;2022-08-25T07:00:19;21.17;;;18.90;;
2658;SDS011;1339;53.304;10.406;2022-08-25T07:02:47;20.47;;;18.40;;
2658;SDS011;1339;53.304;10.406;2022-08-25T07:05:14;21.03;;;18.63;;
2658;SDS011;1339;53.304;10.406;2022-08-25T07:07:41;20.13;;;17.80;;
2658;SDS011;1339;53.304;10.406;2022-08-25T07:10:10;22.13;;;19.73;;
2658;SDS011;1339;53.304;10.406;2022-08-25T07:12:38;21.47;;;19.30;;
2658;SDS011;1339;53.304;10.406;2022-08-25T07:15:05;24.77;;;20.67;;
2658;SDS011;1339;53.304;10.406;2022-08-25T07:17:34;24.63;;;19.07;;
2658;SDS011;1339;53.304;10.406;2022-08-25T07:20:01;21.43;;;17.10;;
2658;SDS011;1339;53.304;10.406;2022-08-25T07:22:28;18.77;;;16.90;;
2658;SDS011;1339;53.304;10.406;2022-08-25T07:24:55;25.50;;;21.33;;
2658;SDS011;1339;53.304;10.406;2022-08-25T07:27:22;22.47;;;18.93;;
2658;SDS011;1339;53.304;10.406;2022-08-25T07:29:50;26.83;;;21.07;;
2658;SDS011;1339;53.304;10.406;2022-08-25T07:32:18;23.73;;;21.23;;
2658;SDS011;1339;53.304;10.406;2022-08-25T07:34:46;26.50;;;22.47;;
2658;SDS011;1339;53.304;10.406;2022-08-25T07:37:31;27.27;;;22.23;;
2658;SDS011;1339;53.304;10.406;2022-08-25T07:40:00;24.33;;;21.07;;
2658;SDS011;1339;53.304;10.406;2022-08-25T07:42:27;26.13;;;21.40;;
2658;SDS011;1339;53.304;10.406;2022-08-25T07:44:54;25.23;;;22.27;;
2658;SDS011;1339;53.304;10.406;2022-08-25T07:47:22;25.77;;;20.83;;
2658;SDS011;1339;53.304;10.406;2022-08-25T07:49:50;30.80;;;23.50;;
2658;SDS011;1339;53.304;10.406;2022-08-25T07:52:17;28.80;;;22.93;;
2658;SDS011;1339;53.304;10.406;2022-08-25T07:54:44;26.17;;;22.17;;
2658;SDS011;1339;53.304;10.406;2022-08-25T07:57:11;29.50;;;22.00;;
2658;SDS011;1339;53.304;10.406;2022-08-25T07:59:39;24.63;;;22.13;;
2658;SDS011;1339;53.304;10.406;2022-08-25T08:02:07;33.93;;;25.20;;
2658;SDS011;1339;53.304;10.406;2022-08-25T08:04:34;27.87;;;25.10;;
2658;SDS011;1339;53.304;10.406;2022-08-25T08:07:03;26.73;;;23.67;;
2658;SDS011;1339;53.304;10.406;2022-08-25T08:09:30;28.63;;;24.27;;
2658;SDS011;1339;53.304;10.406;2022-08-25T08:11:57;24.93;;;20.73;;
2658;SDS011;1339;53.304;10.406;2022-08-25T08:14:25;32.53;;;26.03;;
2658;SDS011;1339;53.304;10.406;2022-08-25T08:16:52;32.17;;;23.23;;
2658;SDS011;1339;53.304;10.406;2022-08-25T08:19:19;31.20;;;25.70;;
2658;SDS011;1339;53.304;10.406;2022-08-25T08:21:47;26.40;;;22.33;;
2658;SDS011;1339;53.304;10.406;2022-08-25T08:24:16;25.83;;;22.13;;
2658;SDS011;1339;53.304;10.406;2022-08-25T08:26:43;23.67;;;21.17;;
2658;SDS011;1339;53.304;10.406;2022-08-25T08:29:10;26.17;;;22.33;;
2658;SDS011;1339;53.304;10.406;2022-08-25T08:31:38;30.07;;;25.37;;
2658;SDS011;1339;53.304;10.406;2022-08-25T08:34:06;26.43;;;23.53;;
2658;SDS011;1339;53.304;10.406;2022-08-25T08:36:33;29.70;;;25.83;;
2658;SDS011;1339;53.304;10.406;2022-08-25T08:39:00;27.67;;;23.33;;
2658;SDS011;1339;53.304;10.406;2022-08-25T08:41:38;29.90;;;24.50;;
2658;SDS011;1339;53.304;10.406;2022-08-25T08:44:27;29.43;;;25.00;;
2658;SDS011;1339;53.304;10.406;2022-08-25T08:47:02;23.80;;;21.20;;
2658;SDS011;1339;53.304;10.406;2022-08-25T08:49:32;25.20;;;21.43;;
2658;SDS011;1339;53.304;10.406;2022-08-25T08:52:01;26.93;;;24.10;;
2658;SDS011;1339;53.304;10.406;2022-08-25T08:54:30;25.23;;;22.43;;
2658;SDS011;1339;53.304;10.406;2022-08-25T08:57:02;22.13;;;19.77;;
2658;SDS011;1339;53.304;10.406;2022-08-25T08:59:32;23.27;;;20.77;;
2658;SDS011;1339;53.304;10.406;2022-08-25T09:02:05;22.03;;;19.83;;
2658;SDS011;1339;53.304;10.406;2022-08-25T09:04:39;25.77;;;23.10;;
2658;SDS011;1339;53.304;10.406;2022-08-25T09:07:09;23.57;;;21.27;;
2658;SDS011;1339;53.304;10.406;2022-08-25T09:09:37;24.23;;;21.83;;
2658;SDS011;1339;53.304;10.406;2022-08-25T09:12:09;23.03;;;20.50;;
2658;SDS011;1339;53.304;10.406;2022-08-25T09:14:40;20.30;;;18.10;;
2658;SDS011;1339;53.304;10.406;2022-08-25T09:17:13;20.63;;;18.63;;
2658;SDS011;1339;53.304;10.406;2022-08-25T09:19:52;20.97;;;18.73;;
2658;SDS011;1339;53.304;10.406;2022-08-25T09:22:26;19.80;;;17.80;;
2658;SDS011;1339;53.304;10.406;2022-08-25T09:25:00;21.70;;;19.50;;
2658;SDS011;1339;53.304;10.406;2022-08-25T09:27:32;20.97;;;18.87;;
2658;SDS011;1339;53.304;10.406;2022-08-25T09:30:04;20.23;;;18.13;;
2658;SDS011;1339;53.304;10.406;2022-08-25T09:32:33;19.43;;;17.40;;
2658;SDS011;1339;53.304;10.406;2022-08-25T09:35:01;17.70;;;15.90;;
2658;SDS011;1339;53.304;10.406;2022-08-25T09:37:28;18.50;;;16.60;;
2658;SDS011;1339;53.304;10.406;2022-08-25T09:39:55;21.70;;;19.23;;
2658;SDS011;1339;53.304;10.406;2022-08-25T09:42:22;18.03;;;16.43;;
2658;SDS011;1339;53.304;10.406;2022-08-25T09:45:12;18.40;;;15.10;;
2658;SDS011;1339;53.304;10.406;2022-08-25T09:47:41;16.70;;;15.30;;
2658;SDS011;1339;53.304;10.406;2022-08-25T09:50:11;13.73;;;12.30;;
2658;SDS011;1339;53.304;10.406;2022-08-25T09:52:40;18.53;;;14.17;;
2658;SDS011;1339;53.304;10.406;2022-08-25T09:55:22;14.47;;;13.10;;
2658;SDS011;1339;53.304;10.406;2022-08-25T09:57:52;11.90;;;10.83;;
2658;SDS011;1339;53.304;10.406;2022-08-25T10:00:23;13.87;;;12.30;;
2658;SDS011;1339;53.304;10.406;2022-08-25T10:03:00;11.83;;;10.60;;
2658;SDS011;1339;53.304;10.406;2022-08-25T10:05:27;12.77;;;11.60;;
2658;SDS011;1339;53.304;10.406;2022-08-25T10:07:59;12.07;;;10.80;;
2658;SDS011;1339;53.304;10.406;2022-08-25T10:10:28;11.30;;;10.30;;
2658;SDS011;1339;53.304;10.406;2022-08-25T10:12:55;11.67;;;10.70;;
2658;SDS011;1339;53.304;10.406;2022-08-25T10:15:27;9.63;;;8.67;;
2658;SDS011;1339;53.304;10.406;2022-08-25T10:17:55;9.77;;;8.90;;
2658;SDS011;1339;53.304;10.406;2022-08-25T10:20:25;9.20;;;8.40;;
2658;SDS011;1339;53.304;10.406;2022-08-25T10:23:07;8.70;;;8.00;;
2658;SDS011;1339;53.304;10.406;2022-08-25T10:25:34;7.90;;;7.20;;
2658;SDS011;1339;53.304;10.406;2022-08-25T10:28:07;7.57;;;6.97;;
2658;SDS011;1339;53.304;10.406;2022-08-25T10:30:41;7.13;;;6.50;;
2658;SDS011;1339;53.304;10.406;2022-08-25T10:33:12;7.17;;;6.60;;
2658;SDS011;1339;53.304;10.406;2022-08-25T10:35:45;6.80;;;6.00;;
2658;SDS011;1339;53.304;10.406;2022-08-25T10:38:19;7.77;;;6.83;;
2658;SDS011;1339;53.304;10.406;2022-08-25T10:40:53;8.03;;;7.40;;
2658;SDS011;1339;53.304;10.406;2022-08-25T10:43:23;6.83;;;6.27;;
2658;SDS011;1339;53.304;10.406;2022-08-25T10:46:02;7.17;;;6.67;;
2658;SDS011;1339;53.304;10.406;2022-08-25T10:48:42;7.17;;;6.47;;
2658;SDS011;1339;53.304;10.406;2022-08-25T10:51:25;7.07;;;6.37;;
2658;SDS011;1339;53.304;10.406;2022-08-25T10:53:56;7.20;;;6.60;;
2658;SDS011;1339;53.304;10.406;2022-08-25T10:56:25;7.60;;;6.90;;
2658;SDS011;1339;53.304;10.406;2022-08-25T10:58:57;11.17;;;7.03;;
2658;SDS011;1339;53.304;10.406;2022-08-25T11:01:32;6.37;;;5.97;;
2658;SDS011;1339;53.304;10.406;2022-08-25T11:04:02;8.33;;;6.60;;
2658;SDS011;1339;53.304;10.406;2022-08-25T11:06:33;9.30;;;6.97;;
2658;SDS011;1339;53.304;10.406;2022-08-25T11:09:04;7.13;;;6.33;;
2658;SDS011;1339;53.304;10.406;2022-08-25T11:11:33;7.00;;;6.43;;
2658;SDS011;1339;53.304;10.406;2022-08-25T11:14:03;7.70;;;6.90;;
2658;SDS011;1339;53.304;10.406;2022-08-25T11:16:34;8.30;;;7.50;;
2658;SDS011;1339;53.304;10.406;2022-08-25T11:19:04;7.80;;;6.23;;
2658;SDS011;1339;53.304;10.406;2022-08-25T11:21:34;6.47;;;6.03;;
2658;SDS011;1339;53.304;10.406;2022-08-25T11:24:07;6.73;;;5.93;;
2658;SDS011;1339;53.304;10.406;2022-08-25T11:26:36;7.13;;;6.43;;
2658;SDS011;1339;53.304;10.406;2022-08-25T11:29:05;8.80;;;6.60;;
2658;SDS011;1339;53.304;10.406;2022-08-25T11:31:37;7.10;;;6.43;;
2658;SDS011;1339;53.304;10.406;2022-08-25T11:34:07;8.00;;;7.40;;
2658;SDS011;1339;53.304;10.406;2022-08-25T11:36:36;7.43;;;6.83;;
2658;SDS011;1339;53.304;10.406;2022-08-25T11:39:08;7.90;;;7.20;;
2658;SDS011;1339;53.304;10.406;2022-08-25T11:41:40;7.13;;;6.53;;
2658;SDS011;1339;53.304;10.406;2022-08-25T11:44:15;8.27;;;7.10;;
2658;SDS011;1339;53.304;10.406;2022-08-25T11:46:48;7.47;;;6.97;;
2658;SDS011;1339;53.304;10.406;2022-08-25T11:49:31;8.80;;;8.10;;
2658;SDS011;1339;53.304;10.406;2022-08-25T11:52:03;7.70;;;7.03;;
2658;SDS011;1339;53.304;10.406;2022-08-25T11:54:33;7.43;;;6.73;;
2658;SDS011;1339;53.304;10.406;2022-08-25T11:57:04;6.87;;;6.30;;
2658;SDS011;1339;53.304;10.406;2022-08-25T12:02:31;7.80;;;7.17;;
2658;SDS011;1339;53.304;10.406;2022-08-25T12:05:00;7.67;;;6.97;;
2658;SDS011;1339;53.304;10.406;2022-08-25T12:07:29;8.90;;;7.97;;
2658;SDS011;1339;53.304;10.406;2022-08-25T12:10:19;8.00;;;7.23;;
2658;SDS011;1339;53.304;10.406;2022-08-25T12:13:00;7.13;;;6.53;;
2658;SDS011;1339;53.304;10.406;2022-08-25T12:15:31;7.27;;;6.60;;
2658;SDS011;1339;53.304;10.406;2022-08-25T12:18:08;8.30;;;7.47;;
2658;SDS011;1339;53.304;10.406;2022-08-25T12:23:26;8.13;;;7.43;;
2658;SDS011;1339;53.304;10.406;2022-08-25T12:25:53;7.17;;;6.67;;
2658;SDS011;1339;53.304;10.406;2022-08-25T12:28:34;6.77;;;6.27;;
2658;SDS011;1339;53.304;10.406;2022-08-25T12:31:04;6.80;;;6.13;;
2658;SDS011;1339;53.304;10.406;2022-08-25T12:33:38;6.47;;;5.93;;
2658;SDS011;1339;53.304;10.406;2022-08-25T12:36:07;6.33;;;5.83;;
2658;SDS011;1339;53.304;10.406;2022-08-25T12:38:36;7.57;;;6.97;;
2658;SDS011;1339;53.304;10.406;2022-08-25T12:41:06;6.57;;;5.97;;
2658;SDS011;1339;53.304;10.406;2022-08-25T12:43:34;5.43;;;5.00;;
2658;SDS011;1339;53.304;10.406;2022-08-25T12:51:26;6.97;;;6.40;;
2658;SDS011;1339;53.304;10.406;2022-08-25T12:53:56;7.20;;;6.70;;
2658;SDS011;1339;53.304;10.406;2022-08-25T12:56:26;6.40;;;5.90;;
2658;SDS011;1339;53.304;10.406;2022-08-25T12:58:55;6.73;;;6.23;;
2658;SDS011;1339;53.304;10.406;2022-08-25T13:01:25;5.67;;;5.10;;
2658;SDS011;1339;53.304;10.406;2022-08-25T13:04:08;6.67;;;6.07;;
2658;SDS011;1339;53.304;10.406;2022-08-25T13:06:46;5.57;;;4.70;;
2658;SDS011;1339;53.304;10.406;2022-08-25T13:12:06;7.53;;;5.60;;
2658;SDS011;1339;53.304;10.406;2022-08-25T13:14:36;8.87;;;6.07;;
2658;SDS011;1339;53.304;10.406;2022-08-25T13:17:03;5.87;;;5.30;;
2658;SDS011;1339;53.304;10.406;2022-08-25T13:19:31;5.83;;;5.30;;
2658;SDS011;1339;53.304;10.406;2022-08-25T13:22:00;8.70;;;4.50;;
2658;SDS011;1339;53.304;10.406;2022-08-25T13:24:29;6.00;;;5.60;;
2658;SDS011;1339;53.304;10.406;2022-08-25T13:26:58;6.00;;;5.50;;
2658;SDS011;1339;53.304;10.406;2022-08-25T13:29:26;5.00;;;4.60;;
2658;SDS011;1339;53.304;10.406;2022-08-25T13:31:54;5.50;;;5.10;;
2658;SDS011;1339;53.304;10.406;2022-08-25T13:34:23;6.30;;;5.70;;
2658;SDS011;1339;53.304;10.406;2022-08-25T13:36:50;5.70;;;5.20;;
2658;SDS011;1339;53.304;10.406;2022-08-25T13:39:48;5.67;;;5.27;;
2658;SDS011;1339;53.304;10.406;2022-08-25T13:42:16;5.97;;;5.47;;
2658;SDS011;1339;53.304;10.406;2022-08-25T13:44:43;6.00;;;5.37;;
2658;SDS011;1339;53.304;10.406;2022-08-25T13:47:11;5.50;;;5.10;;
2658;SDS011;1339;53.304;10.406;2022-08-25T13:49:40;5.17;;;4.67;;
2658;SDS011;1339;53.304;10.406;2022-08-25T13:52:08;5.53;;;4.67;;
2658;SDS011;1339;53.304;10.406;2022-08-25T13:54:40;6.33;;;5.73;;
2658;SDS011;1339;53.304;10.406;2022-08-25T13:57:12;6.00;;;4.67;;
2658;SDS011;1339;53.304;10.406;2022-08-25T13:59:40;7.37;;;5.27;;
2658;SDS011;1339;53.304;10.406;2022-08-25T14:02:09;7.67;;;5.40;;
2658;SDS011;1339;53.304;10.406;2022-08-25T14:04:44;5.40;;;4.90;;
2658;SDS011;1339;53.304;10.406;2022-08-25T14:07:14;5.87;;;5.37;;
2658;SDS011;1339;53.304;10.406;2022-08-25T14:09:45;5.87;;;5.27;;
2658;SDS011;1339;53.304;10.406;2022-08-25T14:12:27;7.87;;;5.57;;
2658;SDS011;1339;53.304;10.406;2022-08-25T14:15:03;4.63;;;4.33;;
2658;SDS011;1339;53.304;10.406;2022-08-25T14:17:30;5.57;;;5.17;;
2658;SDS011;1339;53.304;10.406;2022-08-25T14:19:58;5.20;;;4.80;;
2658;SDS011;1339;53.304;10.406;2022-08-25T14:22:25;9.27;;;4.80;;
2658;SDS011;1339;53.304;10.406;2022-08-25T14:24:52;7.07;;;5.53;;
2658;SDS011;1339;53.304;10.406;2022-08-25T14:27:20;5.30;;;4.80;;
2658;SDS011;1339;53.304;10.406;2022-08-25T14:29:48;4.90;;;4.50;;
2658;SDS011;1339;53.304;10.406;2022-08-25T14:32:16;7.30;;;5.00;;
2658;SDS011;1339;53.304;10.406;2022-08-25T14:34:43;7.10;;;4.90;;
2658;SDS011;1339;53.304;10.406;2022-08-25T14:37:12;6.43;;;5.30;;
2658;SDS011;1339;53.304;10.406;2022-08-25T14:39:39;6.43;;;5.70;;
2658;SDS011;1339;53.304;10.406;2022-08-25T14:42:07;5.00;;;4.60;;
2658;SDS011;1339;53.304;10.406;2022-08-25T14:44:34;5.50;;;5.00;;
2658;SDS011;1339;53.304;10.406;2022-08-25T14:47:03;7.40;;;4.83;;
2658;SDS011;1339;53.304;10.406;2022-08-25T14:49:33;6.50;;;5.80;;
2658;SDS011;1339;53.304;10.406;2022-08-25T14:52:03;4.50;;;4.10;;
2658;SDS011;1339;53.304;10.406;2022-08-25T14:54:32;5.03;;;4.50;;
2658;SDS011;1339;53.304;10.406;2022-08-25T14:56:59;5.70;;;5.20;;
2658;SDS011;1339;53.304;10.406;2022-08-25T14:59:26;7.90;;;5.43;;
2658;SDS011;1339;53.304;10.406;2022-08-25T15:01:54;4.73;;;4.33;;
2658;SDS011;1339;53.304;10.406;2022-08-25T15:04:24;5.87;;;5.27;;
2658;SDS011;1339;53.304;10.406;2022-08-25T15:06:53;5.53;;;5.00;;
2658;SDS011;1339;53.304;10.406;2022-08-25T15:09:21;5.87;;;5.20;;
2658;SDS011;1339;53.304;10.406;2022-08-25T15:11:48;5.20;;;4.90;;
2658;SDS011;1339;53.304;10.406;2022-08-25T15:14:16;5.00;;;4.60;;
2658;SDS011;1339;53.304;10.406;2022-08-25T15:16:44;8.00;;;4.50;;